createdAt,value
2018-04-14T00:07:14.000Z,54.433
2018-04-14T00:17:14.000Z,54.409
2018-04-14T00:27:14.000Z,54.361
2018-04-14T00:37:15.000Z,54.403
2018-04-14T00:47:15.000Z,54.399
2018-04-14T00:57:15.000Z,54.341
2018-04-14T01:07:15.000Z,54.416
2018-04-14T01:17:15.000Z,54.347
2018-04-14T01:27:15.000Z,54.397
2018-04-14T01:37:15.000Z,54.406
2018-04-14T01:47:15.000Z,54.403
2018-04-14T01:57:15.000Z,54.345
2018-04-14T02:07:15.000Z,54.299
2018-04-14T02:17:15.000Z,54.382
2018-04-14T02:27:15.000Z,54.345
2018-04-14T02:37:15.000Z,54.28
2018-04-14T02:47:15.000Z,54.266
2018-04-14T02:57:15.000Z,54.336
2018-04-14T03:07:15.000Z,54.271
2018-04-14T03:17:15.000Z,54.235
2018-04-14T03:27:15.000Z,54.178
2018-04-14T03:37:15.000Z,54.154
2018-04-14T03:47:15.000Z,54.193
2018-04-14T03:57:15.000Z,54.051
2018-04-14T04:07:15.000Z,54.072
2018-04-14T04:17:15.000Z,54.059
2018-04-14T04:27:15.000Z,54.111
2018-04-14T04:37:15.000Z,54.031
2018-04-14T04:47:15.000Z,53.758
2018-04-14T04:57:15.000Z,53.778
2018-04-14T05:07:15.000Z,53.787
2018-04-14T05:17:15.000Z,53.731
2018-04-14T05:27:15.000Z,53.813
2018-04-14T05:37:15.000Z,53.791
2018-04-14T05:47:15.000Z,53.822
2018-04-14T05:57:15.000Z,53.712
2018-04-14T06:07:15.000Z,53.604
2018-04-14T06:17:15.000Z,53.42
2018-04-14T06:27:15.000Z,53.484
2018-04-14T06:37:15.000Z,53.247
2018-04-14T06:47:15.000Z,52.939
2018-04-14T06:57:15.000Z,52.613
2018-04-14T07:07:15.000Z,52.551
2018-04-14T07:17:15.000Z,52.234
2018-04-14T07:27:15.000Z,52.002
2018-04-14T07:37:15.000Z,51.486
2018-04-14T07:47:15.000Z,51.473
2018-04-14T07:57:15.000Z,51.319
2018-04-14T08:07:15.000Z,51.079
2018-04-14T08:17:15.000Z,50.955
2018-04-14T08:27:15.000Z,50.796
2018-04-14T08:37:15.000Z,50.158
2018-04-14T08:47:15.000Z,50.528
2018-04-14T08:57:15.000Z,50.166
2018-04-14T09:07:16.000Z,50.114
2018-04-14T09:17:16.000Z,50.189
2018-04-14T09:27:16.000Z,50.069
2018-04-14T09:37:16.000Z,50.058
2018-04-14T09:47:16.000Z,49.733
2018-04-14T09:57:16.000Z,49.381
2018-04-14T10:07:16.000Z,49.361
2018-04-14T10:17:16.000Z,49.369
2018-04-14T10:27:16.000Z,49.104
2018-04-14T10:37:16.000Z,49.342
2018-04-14T10:47:16.000Z,49.064
2018-04-14T10:57:18.000Z,49.097
2018-04-14T11:07:16.000Z,48.884
2018-04-14T11:17:16.000Z,48.392
2018-04-14T11:27:16.000Z,48.538
2018-04-14T11:37:16.000Z,47.291
2018-04-14T11:47:16.000Z,47.534
2018-04-14T11:57:17.000Z,46.523
2018-04-14T12:07:16.000Z,46.836
2018-04-14T12:17:16.000Z,47.01
2018-04-14T12:27:16.000Z,46.807
2018-04-14T12:37:16.000Z,46.584
2018-04-14T12:47:16.000Z,43.294
2018-04-14T12:57:16.000Z,43.617
2018-04-14T13:07:16.000Z,42.937
2018-04-14T13:17:16.000Z,42.443
2018-04-14T13:27:16.000Z,42.103
2018-04-14T13:37:16.000Z,42.221
2018-04-14T13:47:16.000Z,44.103
2018-04-14T13:57:16.000Z,44.153
2018-04-14T14:07:16.000Z,44.417
2018-04-14T14:17:16.000Z,44.703
2018-04-14T14:27:16.000Z,44.947
2018-04-14T14:37:16.000Z,45.081
2018-04-14T14:47:16.000Z,45.395
2018-04-14T14:57:16.000Z,45.495
2018-04-14T15:07:16.000Z,45.776
2018-04-14T15:17:16.000Z,45.932
2018-04-14T15:27:16.000Z,46.142
2018-04-14T15:37:16.000Z,46.261
2018-04-14T15:47:16.000Z,46.421
2018-04-14T15:57:16.000Z,46.499
2018-04-14T16:07:16.000Z,46.69
2018-04-14T16:17:16.000Z,46.906
2018-04-14T16:27:16.000Z,46.929
2018-04-14T16:37:16.000Z,46.983
2018-04-14T16:47:16.000Z,47.08
2018-04-14T16:57:16.000Z,47.426
2018-04-14T17:07:16.000Z,47.62
2018-04-14T17:17:16.000Z,47.874
2018-04-14T17:27:16.000Z,47.851
2018-04-14T17:37:17.000Z,47.813
2018-04-14T17:47:17.000Z,48.079
2018-04-14T17:57:19.000Z,48.105
2018-04-14T18:07:17.000Z,48.197
2018-04-14T18:17:17.000Z,48.299
2018-04-14T18:27:17.000Z,48.393
2018-04-14T18:37:17.000Z,48.551
2018-04-14T18:47:17.000Z,49.198
2018-04-14T18:57:17.000Z,49.901
2018-04-14T19:07:17.000Z,49.812
2018-04-14T19:17:17.000Z,49.734
2018-04-14T19:27:17.000Z,49.937
2018-04-14T19:37:17.000Z,50.044
2018-04-14T19:47:17.000Z,50.269
2018-04-14T19:57:17.000Z,50.309
2018-04-14T20:07:17.000Z,50.361
2018-04-14T20:17:17.000Z,50.53
2018-04-14T20:27:17.000Z,50.528
2018-04-14T20:37:17.000Z,50.624
2018-04-14T20:47:17.000Z,50.849
2018-04-14T20:57:17.000Z,51.164
2018-04-14T21:07:17.000Z,51.695
2018-04-14T21:17:17.000Z,51.541
2018-04-14T21:27:17.000Z,51.613
2018-04-14T21:37:17.000Z,51.664
2018-04-14T21:47:17.000Z,51.669
2018-04-14T21:57:17.000Z,51.531
2018-04-14T22:07:17.000Z,51.67
2018-04-14T22:17:17.000Z,51.779
2018-04-14T22:27:17.000Z,51.723
2018-04-14T22:37:17.000Z,51.418
2018-04-14T22:47:17.000Z,51.1
2018-04-14T22:57:17.000Z,51.018
2018-04-14T23:07:17.000Z,51.096
2018-04-14T23:17:17.000Z,51.081
2018-04-14T23:27:17.000Z,51.011
2018-04-14T23:37:17.000Z,51.017
2018-04-14T23:47:17.000Z,51.056
2018-04-14T23:57:17.000Z,51.02
